Time;durP1;ratioP1;P1;durP2;ratioP2;P2;SDS_P1;SDS_P2;PMS_P1;PMS_P2;Temp;Humidity;BMP_temperature;BMP_pressure;BME280_temperature;BME280_humidity;BME280_pressure;Samples;Min_cycle;Max_cycle;Signal;HPM_P1;HPM_P2
2023/08/05 00:00:42;;;;;;;;;5.25;5.00;;;;;19.28;49.82;101369.97;5040475;28;45403;-63
2023/08/05 00:03:07;;;;;;;;;5.50;5.50;;;;;19.27;49.67;101365.56;5039454;28;45261;-63
2023/08/05 00:05:33;;;;;;;;;6.00;6.00;;;;;19.24;49.98;101371.88;5040661;28;45420;-63
2023/08/05 00:07:58;;;;;;;;;7.00;7.00;;;;;19.22;50.03;101371.09;5040158;28;45506;-63
2023/08/05 00:10:23;;;;;;;;;5.00;5.00;;;;;19.20;49.39;101372.94;5040129;28;46195;-63
2023/08/05 00:12:49;;;;;;;;;6.25;6.25;;;;;19.21;49.83;101384.50;5040040;28;45373;-63
2023/08/05 00:15:14;;;;;;;;;4.50;4.00;;;;;19.10;49.70;101358.28;5040447;28;45317;-63
2023/08/05 00:17:39;;;;;;;;;5.25;5.25;;;;;19.16;49.97;101372.19;5040270;28;45421;-64
2023/08/05 00:20:07;;;;;;;;;6.00;6.00;;;;;19.13;50.35;101372.34;5040101;28;50530;-63
2023/08/05 00:22:33;;;;;;;;;7.75;7.75;;;;;19.11;50.52;101368.00;5039600;28;45280;-63
2023/08/05 00:24:58;;;;;;;;;6.50;5.00;;;;;19.08;50.02;101368.09;5039979;28;45538;-63
2023/08/05 00:27:24;;;;;;;;;9.25;8.00;;;;;19.04;50.35;101363.84;5039960;28;45230;-64
2023/08/05 00:29:49;;;;;;;;;8.75;8.00;;;;;19.01;50.16;101367.50;5039921;28;46077;-63
2023/08/05 00:32:14;;;;;;;;;8.00;7.00;;;;;18.97;50.39;101368.56;5039037;28;45222;-63
2023/08/05 00:34:40;;;;;;;;;6.50;6.00;;;;;18.94;50.42;101363.34;5040154;28;45910;-63
2023/08/05 00:37:05;;;;;;;;;10.25;8.00;;;;;18.89;50.58;101359.94;5039861;28;45502;-64
2023/08/05 00:39:31;;;;;;;;;7.75;7.75;;;;;18.90;50.75;101362.59;5039817;28;45257;-63
2023/08/05 00:41:56;;;;;;;;;10.75;9.50;;;;;18.89;50.38;101351.97;5039857;28;45391;-63
2023/08/05 00:44:21;;;;;;;;;8.00;8.00;;;;;18.88;50.51;101360.88;5022063;28;45670;-64
2023/08/05 00:46:47;;;;;;;;;7.50;6.00;;;;;18.85;50.40;101343.22;5039685;28;45431;-63
2023/08/05 00:49:12;;;;;;;;;8.50;7.25;;;;;18.81;50.66;101334.50;5039699;28;45266;-64
2023/08/05 00:51:39;;;;;;;;;8.00;7.00;;;;;18.78;50.39;101329.31;5039939;28;45328;-63
2023/08/05 00:54:04;;;;;;;;;9.75;7.00;;;;;18.76;51.03;101328.47;5040223;28;45325;-64
2023/08/05 00:56:30;;;;;;;;;7.25;7.25;;;;;18.76;50.57;101325.81;5043312;28;45364;-63
2023/08/05 00:58:55;;;;;;;;;8.75;7.75;;;;;18.73;50.50;101325.94;5043074;28;46116;-63
2023/08/05 01:01:21;;;;;;;;;7.50;7.50;;;;;18.70;50.84;101320.72;5043407;28;45226;-63
2023/08/05 01:03:46;;;;;;;;;6.25;6.00;;;;;18.69;50.57;101321.66;5043186;28;45231;-63
2023/08/05 01:06:14;;;;;;;;;8.50;7.00;;;;;18.67;50.68;101327.03;5043418;28;45420;-64
2023/08/05 01:08:40;;;;;;;;;8.00;8.00;;;;;18.67;50.64;101336.84;5024985;28;47394;-63
2023/08/05 01:11:06;;;;;;;;;9.75;7.75;;;;;18.64;51.13;101337.81;5043040;28;45285;-63
2023/08/05 01:13:32;;;;;;;;;7.00;7.00;;;;;18.62;50.88;101350.31;5043073;28;45513;-63
2023/08/05 01:15:57;;;;;;;;;9.00;7.50;;;;;18.59;50.67;101360.22;5042923;28;45328;-64
2023/08/05 01:18:24;;;;;;;;;8.00;8.00;;;;;18.56;51.22;101365.66;5043094;28;45313;-64
2023/08/05 01:20:54;;;;;;;;;7.50;7.25;;;;;18.52;51.12;101354.25;5042884;28;45266;-63
2023/08/05 01:23:35;;;;;;;;;8.50;8.50;;;;;18.49;51.17;101357.91;5042786;28;45372;-63
2023/08/05 01:26:02;;;;;;;;;7.75;7.25;;;;;18.43;50.83;101344.81;5042788;28;45202;-63
2023/08/05 01:28:28;;;;;;;;;10.00;7.00;;;;;18.43;51.01;101347.50;5042787;28;45279;-63
2023/08/05 01:30:56;;;;;;;;;8.00;8.00;;;;;18.39;51.43;101329.91;5042522;28;45303;-63
2023/08/05 01:33:22;;;;;;;;;7.00;4.75;;;;;18.37;51.31;101322.91;5043309;28;45285;-63
2023/08/05 01:35:51;;;;;;;;;8.50;8.00;;;;;18.32;51.52;101310.63;5042680;28;45254;-63
2023/08/05 01:38:16;;;;;;;;;8.25;7.25;;;;;18.31;51.40;101318.69;5042414;28;45224;-64
2023/08/05 01:40:42;;;;;;;;;9.00;8.00;;;;;18.28;51.26;101322.31;5042437;28;45225;-63
2023/08/05 01:43:07;;;;;;;;;7.00;7.00;;;;;18.23;51.39;101326.94;5041572;28;45763;-63
2023/08/05 01:45:33;;;;;;;;;6.50;6.25;;;;;18.19;51.46;101328.84;5042508;28;45274;-63
2023/08/05 01:47:58;;;;;;;;;8.75;7.50;;;;;18.17;51.74;101321.84;5024665;28;45982;-63
2023/08/05 01:50:24;;;;;;;;;8.75;8.25;;;;;18.15;51.84;101331.66;5042424;28;45251;-63
2023/08/05 01:52:51;;;;;;;;;10.00;10.00;;;;;18.11;51.91;101322.97;5042064;28;45300;-63
2023/08/05 01:55:16;;;;;;;;;8.75;7.50;;;;;18.09;51.80;101324.78;5042178;28;45396;-63
2023/08/05 01:57:41;;;;;;;;;8.50;8.00;;;;;18.05;51.89;101324.94;5042277;28;45361;-63
2023/08/05 02:00:07;;;;;;;;;9.50;8.00;;;;;17.99;51.68;101332.22;5042165;28;47407;-63
2023/08/05 02:02:32;;;;;;;;;8.75;6.75;;;;;17.96;51.97;101353.63;5042410;28;45528;-63
2023/08/05 02:04:58;;;;;;;;;7.75;7.75;;;;;17.93;52.11;101363.47;5042081;28;45378;-63
2023/08/05 02:07:23;;;;;;;;;11.00;8.25;;;;;17.88;52.08;101363.63;5040934;28;45348;-64
2023/08/05 02:09:48;;;;;;;;;8.25;7.50;;;;;17.81;52.12;101365.63;5041973;28;46114;-63
2023/08/05 02:12:14;;;;;;;;;8.50;8.50;;;;;17.80;52.18;101358.56;5041952;28;50498;-63
2023/08/05 02:14:39;;;;;;;;;7.25;7.00;;;;;17.77;52.36;101349.84;5042165;28;45277;-63
2023/08/05 02:17:05;;;;;;;;;10.75;9.50;;;;;17.73;52.46;101349.06;5041786;28;53035;-63
2023/08/05 02:19:30;;;;;;;;;6.75;6.25;;;;;17.70;52.30;101339.41;5041968;28;45357;-63
2023/08/05 02:21:55;;;;;;;;;8.00;6.25;;;;;17.68;52.34;101327.97;5041912;28;45229;-63
2023/08/05 02:24:20;;;;;;;;;7.50;7.50;;;;;17.68;52.43;101316.47;5040655;28;45609;-63
2023/08/05 02:26:46;;;;;;;;;7.00;6.25;;;;;17.63;52.25;101307.78;5041839;28;45299;-63
2023/08/05 02:29:11;;;;;;;;;9.25;5.75;;;;;17.62;52.54;101306.94;5041598;28;48528;-63
2023/08/05 02:31:36;;;;;;;;;7.75;7.75;;;;;17.59;52.59;101292.88;5042001;28;45256;-63
2023/08/05 02:34:02;;;;;;;;;5.00;4.50;;;;;17.58;52.34;101289.34;5041731;28;45213;-63
2023/08/05 02:36:27;;;;;;;;;5.50;5.50;;;;;17.58;52.31;101291.13;5041729;28;47170;-63
2023/08/05 02:38:52;;;;;;;;;6.00;5.50;;;;;17.52;52.55;101279.81;5041505;28;45208;-63
2023/08/05 02:41:18;;;;;;;;;6.00;6.00;;;;;17.58;52.39;101291.13;5041922;28;45218;-63
2023/08/05 02:43:43;;;;;;;;;7.00;5.00;;;;;17.58;52.59;101283.16;5041842;28;45206;-63
2023/08/05 02:46:09;;;;;;;;;8.00;6.50;;;;;17.57;52.53;101268.13;5041536;28;48593;-63
2023/08/05 02:48:34;;;;;;;;;7.00;7.00;;;;;17.59;52.35;101258.34;5041597;28;45432;-63
2023/08/05 02:51:00;;;;;;;;;7.25;6.50;;;;;17.58;52.54;101249.47;5041621;28;45312;-63
2023/08/05 02:53:25;;;;;;;;;8.00;6.75;;;;;17.59;52.57;101239.75;5041342;28;45271;-63
2023/08/05 02:55:51;;;;;;;;;8.00;6.00;;;;;17.57;52.83;101238.91;5041286;28;45336;-63
2023/08/05 02:58:16;;;;;;;;;7.00;5.25;;;;;17.60;52.56;101228.19;5041416;28;45367;-63
2023/08/05 03:00:42;;;;;;;;;7.00;7.00;;;;;17.59;52.66;101215.81;5041828;28;45261;-63
2023/08/05 03:03:08;;;;;;;;;7.00;6.25;;;;;17.59;52.80;101213.16;5028084;28;45578;-63
2023/08/05 03:05:33;;;;;;;;;8.00;7.00;;;;;17.59;52.64;101227.31;5040353;28;45314;-63
2023/08/05 03:07:59;;;;;;;;;6.00;6.00;;;;;17.58;52.75;101230.88;5040948;28;45363;-63
2023/08/05 03:10:25;;;;;;;;;8.75;7.50;;;;;17.58;53.13;101227.38;5041391;28;45381;-63
2023/08/05 03:12:50;;;;;;;;;7.50;7.00;;;;;17.57;52.96;101233.59;5041092;28;45431;-63
2023/08/05 03:15:15;;;;;;;;;9.50;8.00;;;;;17.57;52.67;101241.56;5041078;28;45258;-63
2023/08/05 03:17:41;;;;;;;;;8.75;7.50;;;;;17.58;52.88;101235.34;5040956;28;45202;-63
2023/08/05 03:20:22;;;;;;;;;6.25;6.25;;;;;17.54;52.97;101235.44;5039188;28;53073;-63
2023/08/05 03:22:47;;;;;;;;;8.00;5.50;;;;;17.58;53.00;101248.63;5022981;28;45566;-63
2023/08/05 03:25:13;;;;;;;;;8.50;8.00;;;;;17.57;52.79;101246.88;5029021;28;46189;-63
2023/08/05 03:27:38;;;;;;;;;4.50;4.25;;;;;17.56;53.05;101243.38;5025084;28;45322;-63
2023/08/05 03:30:04;;;;;;;;;8.00;7.00;;;;;17.54;52.79;101242.56;5021176;28;45353;-63
2023/08/05 03:32:29;;;;;;;;;8.25;6.25;;;;;17.52;53.03;101239.94;5020960;28;45487;-63
2023/08/05 03:34:55;;;;;;;;;7.00;6.25;;;;;17.52;52.82;101234.63;5020445;28;57066;-63
2023/08/05 03:37:20;;;;;;;;;10.50;8.50;;;;;17.52;52.99;101241.72;5020386;28;54060;-63
2023/08/05 03:39:47;;;;;;;;;9.00;8.25;;;;;17.47;52.95;101225.09;5021050;28;45246;-63
2023/08/05 03:42:12;;;;;;;;;7.25;7.25;;;;;17.50;52.81;101235.63;5020845;28;45235;-63
2023/08/05 03:44:37;;;;;;;;;9.50;6.50;;;;;17.49;53.04;101226.75;5020299;28;58501;-63
2023/08/05 03:47:03;;;;;;;;;5.50;5.50;;;;;17.47;53.00;101227.75;5020904;28;45219;-63
2023/08/05 03:49:28;;;;;;;;;7.50;5.25;;;;;17.46;53.13;101234.84;5020826;28;45389;-63
2023/08/05 03:51:54;;;;;;;;;6.50;6.50;;;;;17.46;53.20;101233.97;5020471;28;45637;-63
2023/08/05 03:54:19;;;;;;;;;6.75;6.75;;;;;17.44;53.38;101230.50;5016449;28;47406;-63
2023/08/05 03:56:44;;;;;;;;;9.25;6.50;;;;;17.43;53.40;101237.59;5025187;28;45223;-63
2023/08/05 03:59:09;;;;;;;;;7.00;6.25;;;;;17.41;53.11;101227.94;5029360;28;45234;-63
2023/08/05 04:01:35;;;;;;;;;7.00;6.00;;;;;17.41;53.25;101231.50;5040268;28;53965;-63
2023/08/05 04:04:01;;;;;;;;;6.00;6.00;;;;;17.40;53.40;101240.38;5030577;28;48063;-63
2023/08/05 04:06:26;;;;;;;;;8.75;7.75;;;;;17.39;53.46;101230.66;5020542;28;45421;-63
2023/08/05 04:08:54;;;;;;;;;6.75;6.25;;;;;17.36;53.58;101220.16;5020442;28;45397;-63
2023/08/05 04:11:20;;;;;;;;;8.75;8.75;;;;;17.36;53.44;101214.84;5020267;28;45415;-63
2023/08/05 04:13:45;;;;;;;;;7.00;6.00;;;;;17.32;53.43;101207.88;5038340;28;45320;-63
2023/08/05 04:16:11;;;;;;;;;7.00;6.00;;;;;17.33;53.40;101194.56;5040193;28;45304;-63
2023/08/05 04:18:38;;;;;;;;;8.25;5.25;;;;;17.29;53.52;101190.28;5040457;28;45155;-63
2023/08/05 04:21:04;;;;;;;;;8.50;7.25;;;;;17.29;53.53;101182.31;5039378;28;45570;-63
2023/08/05 04:23:32;;;;;;;;;8.50;8.00;;;;;17.30;53.49;101169.91;5039703;28;47146;-63
2023/08/05 04:25:59;;;;;;;;;5.75;5.00;;;;;17.25;53.50;101162.09;5039923;28;45447;-63
2023/08/05 04:28:24;;;;;;;;;7.25;5.25;;;;;17.25;53.57;101159.44;5039759;28;45336;-63
2023/08/05 04:30:50;;;;;;;;;7.50;7.00;;;;;17.25;53.87;101147.97;5039394;28;45366;-63
2023/08/05 04:33:15;;;;;;;;;7.00;7.00;;;;;17.24;53.62;101151.53;5040272;28;46410;-63
2023/08/05 04:35:48;;;;;;;;;7.25;7.25;;;;;17.21;53.57;101169.31;5039860;28;45258;-63
2023/08/05 04:38:14;;;;;;;;;6.25;6.25;;;;;17.21;53.75;101171.97;5040133;28;45408;-63
2023/08/05 04:40:40;;;;;;;;;6.75;4.25;;;;;17.19;53.67;101163.19;5039829;28;45428;-63
2023/08/05 04:43:05;;;;;;;;;8.25;7.00;;;;;17.20;53.51;101174.69;5039738;28;46076;-63
2023/08/05 04:45:31;;;;;;;;;7.25;7.25;;;;;17.19;53.64;101173.81;5039685;28;45349;-63
2023/08/05 04:47:56;;;;;;;;;7.75;7.75;;;;;17.20;53.80;101177.34;5040164;28;45205;-63
2023/08/05 04:50:22;;;;;;;;;7.50;6.50;;;;;17.19;53.95;101175.59;5039475;28;47388;-63
2023/08/05 04:52:48;;;;;;;;;7.75;6.75;;;;;17.14;54.13;101170.44;5039606;28;45301;-63
2023/08/05 04:55:15;;;;;;;;;20.25;17.50;;;;;17.17;54.08;101173.00;5021605;28;45252;-63
2023/08/05 04:57:42;;;;;;;;;9.00;7.00;;;;;17.15;53.94;101166.84;5039938;28;45329;-63
2023/08/05 05:00:08;;;;;;;;;8.00;7.25;;;;;17.16;54.11;101173.91;5038616;28;45554;-63
2023/08/05 05:02:33;;;;;;;;;5.75;5.75;;;;;17.13;54.14;101174.03;5039537;28;46254;-63
2023/08/05 05:04:58;;;;;;;;;7.00;6.00;;;;;17.08;54.08;101160.06;5039461;28;45298;-63
2023/08/05 05:07:24;;;;;;;;;8.00;7.25;;;;;17.10;54.29;101162.66;5039574;28;45556;-63
2023/08/05 05:09:49;;;;;;;;;5.75;5.00;;;;;17.10;54.12;101167.97;5037349;28;45521;-63
2023/08/05 05:12:15;;;;;;;;;7.50;7.50;;;;;17.10;54.04;101150.22;5039419;28;47027;-63
2023/08/05 05:14:44;;;;;;;;;7.25;5.75;;;;;17.09;54.32;101148.47;5039748;28;45294;-63
2023/08/05 05:17:10;;;;;;;;;7.75;6.75;;;;;17.10;54.29;101152.03;5039724;28;45417;-63
2023/08/05 05:19:35;;;;;;;;;9.00;8.00;;;;;17.09;54.11;101140.53;5039448;28;45244;-63
2023/08/05 05:22:00;;;;;;;;;9.00;8.00;;;;;17.10;54.35;101131.63;5039024;28;45507;-63
2023/08/05 05:24:25;;;;;;;;;8.00;7.00;;;;;17.10;54.46;101133.44;5039262;28;45365;-63
2023/08/05 05:26:51;;;;;;;;;6.75;6.50;;;;;17.08;54.28;101130.84;5026707;28;52425;-63
2023/08/05 05:29:19;;;;;;;;;7.50;7.50;;;;;17.05;54.27;101122.97;5023240;28;45387;-63
2023/08/05 05:31:45;;;;;;;;;7.00;7.00;;;;;17.05;54.66;101122.97;5018747;28;46201;-63
2023/08/05 05:34:10;;;;;;;;;6.50;6.50;;;;;17.06;54.37;101138.00;5001367;28;53827;-63
2023/08/05 05:36:35;;;;;;;;;8.50;8.50;;;;;17.04;54.63;101131.84;5019475;28;45227;-63
2023/08/05 05:39:01;;;;;;;;;9.75;7.50;;;;;17.04;54.39;101131.84;5019105;28;46448;-63
2023/08/05 05:41:26;;;;;;;;;6.50;6.50;;;;;17.03;54.27;101116.84;5021612;28;46145;-63
2023/08/05 05:43:51;;;;;;;;;9.75;6.75;;;;;16.99;54.40;101109.91;5004751;28;45412;-63
2023/08/05 05:46:19;;;;;;;;;9.50;8.00;;;;;16.99;54.48;101108.16;5021725;28;45358;-63
2023/08/05 05:48:44;;;;;;;;;10.75;8.50;;;;;16.98;54.51;101116.13;5022619;28;45456;-63
2023/08/05 05:51:10;;;;;;;;;9.00;7.50;;;;;16.98;54.58;101105.53;5022523;28;46292;-63
2023/08/05 05:53:35;;;;;;;;;9.00;6.00;;;;;16.97;54.46;101099.34;5022198;28;45468;-63
2023/08/05 05:56:01;;;;;;;;;9.00;8.00;;;;;16.96;54.47;101104.72;5022571;28;45629;-63
2023/08/05 05:58:27;;;;;;;;;8.50;7.50;;;;;16.97;54.73;101099.34;5025105;28;45243;-63
2023/08/05 06:00:56;;;;;;;;;6.75;6.75;;;;;16.98;54.76;101103.75;5042523;28;45408;-63
2023/08/05 06:03:21;;;;;;;;;8.00;6.00;;;;;16.97;55.00;101093.19;5042096;28;45269;-64
2023/08/05 06:05:50;;;;;;;;;11.00;8.00;;;;;16.95;55.03;101081.75;5042292;28;45393;-64
2023/08/05 06:08:15;;;;;;;;;7.50;6.75;;;;;16.94;54.99;101078.22;5042072;28;45499;-64
2023/08/05 06:10:40;;;;;;;;;8.00;6.75;;;;;16.93;54.98;101080.94;5023990;28;45973;-64
2023/08/05 06:13:05;;;;;;;;;6.50;4.25;;;;;16.87;54.79;101074.88;5041106;28;46189;-63
2023/08/05 06:15:31;;;;;;;;;7.00;5.75;;;;;16.88;54.93;101078.41;5042253;28;45273;-63
2023/08/05 06:17:56;;;;;;;;;6.00;6.00;;;;;16.89;54.99;101078.38;5042163;28;45198;-64
2023/08/05 06:20:21;;;;;;;;;6.75;6.75;;;;;16.89;55.29;101077.47;5041962;28;45419;-64
2023/08/05 06:22:47;;;;;;;;;6.00;5.00;;;;;16.88;55.07;101073.13;5041667;28;45416;-64
2023/08/05 06:25:12;;;;;;;;;6.00;5.00;;;;;16.88;54.92;101065.16;5041677;28;47727;-64
2023/08/05 06:27:38;;;;;;;;;6.25;6.25;;;;;16.88;54.89;101060.69;5041443;28;58803;-63
2023/08/05 06:30:04;;;;;;;;;7.25;6.25;;;;;16.87;55.43;101058.09;5040574;28;46795;-63
2023/08/05 06:32:29;;;;;;;;;5.50;5.50;;;;;16.90;55.15;101057.97;5041828;28;45338;-63
2023/08/05 06:34:55;;;;;;;;;4.75;4.75;;;;;16.92;55.02;101057.94;5040568;28;45280;-63
2023/08/05 06:37:21;;;;;;;;;9.75;6.25;;;;;16.92;55.35;101048.22;5041719;28;45317;-63
2023/08/05 06:39:47;;;;;;;;;5.25;5.25;;;;;16.93;55.18;101054.38;5041293;28;45316;-64
2023/08/05 06:42:12;;;;;;;;;5.00;4.25;;;;;16.93;55.14;101049.97;5041408;28;45270;-63
2023/08/05 06:44:37;;;;;;;;;6.50;5.25;;;;;16.97;55.29;101051.56;5041883;28;45313;-64
2023/08/05 06:47:04;;;;;;;;;7.00;6.50;;;;;17.01;55.28;101049.69;5041643;28;45440;-63
2023/08/05 06:49:29;;;;;;;;;6.00;6.00;;;;;17.00;55.42;101045.28;5041555;28;46007;-63
2023/08/05 06:51:55;;;;;;;;;11.00;7.50;;;;;17.05;55.17;101057.44;5040296;28;52903;-63
2023/08/05 06:54:21;;;;;;;;;5.00;5.00;;;;;17.10;55.41;101045.81;5041689;28;45340;-63
2023/08/05 06:56:46;;;;;;;;;4.75;4.75;;;;;17.12;55.26;101049.25;5041311;28;45391;-64
2023/08/05 06:59:12;;;;;;;;;5.00;5.00;;;;;17.16;55.47;101049.09;5041326;28;45381;-63
2023/08/05 07:01:37;;;;;;;;;4.50;4.50;;;;;17.19;55.56;101046.34;5041306;28;45324;-64
2023/08/05 07:04:03;;;;;;;;;4.00;4.00;;;;;17.25;55.43;101044.41;5041506;28;45422;-63
2023/08/05 07:06:28;;;;;;;;;4.50;4.00;;;;;17.28;54.98;101033.63;5041401;28;45328;-64
2023/08/05 07:08:53;;;;;;;;;4.75;4.75;;;;;17.33;55.68;101037.88;5039796;28;47181;-63
2023/08/05 07:11:19;;;;;;;;;5.00;5.00;;;;;17.37;55.56;101027.97;5041108;28;45378;-63
2023/08/05 07:13:44;;;;;;;;;4.50;4.25;;;;;17.43;55.67;101033.03;5041215;28;45250;-64
2023/08/05 07:16:09;;;;;;;;;6.25;5.00;;;;;17.42;55.81;101015.41;5041065;28;45432;-64
2023/08/05 07:18:35;;;;;;;;;4.00;4.00;;;;;17.49;55.53;101014.22;5041165;28;45301;-64
2023/08/05 07:21:00;;;;;;;;;4.00;4.00;;;;;17.53;55.78;101002.56;5041156;28;46740;-63
2023/08/05 07:23:25;;;;;;;;;4.00;4.00;;;;;17.56;55.23;100998.94;5041098;28;45605;-64
2023/08/05 07:25:51;;;;;;;;;4.75;3.00;;;;;17.59;55.52;101001.44;5040962;28;45298;-63
2023/08/05 07:28:16;;;;;;;;;2.75;2.75;;;;;17.66;55.72;101007.38;5040853;28;46302;-64
2023/08/05 07:30:41;;;;;;;;;5.25;4.25;;;;;17.71;55.65;101011.59;5040847;28;45221;-64
2023/08/05 07:33:09;;;;;;;;;4.50;3.25;;;;;17.79;55.58;101018.41;5041156;28;45155;-64
2023/08/05 07:35:37;;;;;;;;;3.00;3.00;;;;;17.81;55.37;101016.53;5040962;28;45217;-63
2023/08/05 07:38:09;;;;;;;;;4.25;4.00;;;;;17.89;55.62;101017.09;5040712;28;45455;-64
2023/08/05 07:40:36;;;;;;;;;7.50;6.00;;;;;17.92;55.85;101016.13;5040614;28;45474;-64
2023/08/05 07:43:03;;;;;;;;;2.75;2.75;;;;;17.94;55.62;101006.31;5039528;28;45448;-63
2023/08/05 07:45:28;;;;;;;;;4.00;3.00;;;;;18.01;55.72;101010.44;5040582;28;45518;-63
2023/08/05 07:47:56;;;;;;;;;3.25;3.25;;;;;18.05;55.54;101009.41;5022689;28;46358;-63
2023/08/05 07:50:22;;;;;;;;;4.00;4.00;;;;;18.10;55.35;101010.06;5040519;28;45230;-63
2023/08/05 07:52:50;;;;;;;;;3.25;3.00;;;;;18.14;55.38;101017.00;5040544;28;45928;-64
2023/08/05 07:55:15;;;;;;;;;4.00;4.00;;;;;18.15;55.29;101010.75;5032403;28;45423;-63
2023/08/05 07:57:40;;;;;;;;;5.00;3.50;;;;;18.21;55.37;101003.44;5020520;28;46158;-64
2023/08/05 08:00:09;;;;;;;;;2.75;2.75;;;;;18.21;55.19;101004.28;5036896;28;45372;-64
2023/08/05 08:02:35;;;;;;;;;2.75;2.75;;;;;18.27;55.52;101008.50;5040501;28;45317;-64
2023/08/05 08:05:04;;;;;;;;;4.00;2.00;;;;;18.27;55.40;100992.53;5039204;28;45381;-63
2023/08/05 08:07:30;;;;;;;;;2.25;2.25;;;;;18.38;55.26;100992.06;5028879;28;45618;-64
2023/08/05 08:09:55;;;;;;;;;3.75;3.75;;;;;18.39;55.38;100976.06;5023247;28;45212;-64
2023/08/05 08:12:20;;;;;;;;;2.25;2.25;;;;;18.45;54.94;100969.59;5027001;28;45393;-64
2023/08/05 08:14:46;;;;;;;;;1.25;1.25;;;;;18.51;55.24;100974.66;5040213;28;45544;-63
2023/08/05 08:17:12;;;;;;;;;4.75;2.00;;;;;18.52;54.90;100958.59;5040259;28;45397;-64
2023/08/05 08:19:37;;;;;;;;;1.00;1.00;;;;;18.59;54.86;100961.00;5040165;28;45398;-63
2023/08/05 08:22:02;;;;;;;;;3.00;2.25;;;;;18.62;54.45;100955.56;5040261;28;45461;-64
2023/08/05 08:24:28;;;;;;;;;2.00;0.50;;;;;18.61;54.74;100948.50;5040094;28;45529;-64
2023/08/05 08:26:53;;;;;;;;;1.00;1.00;;;;;18.67;54.30;100948.22;5039590;28;53050;-63
2023/08/05 08:29:18;;;;;;;;;1.25;1.25;;;;;18.69;54.36;100951.66;5040208;28;45350;-64
2023/08/05 08:31:44;;;;;;;;;2.50;2.50;;;;;18.72;54.27;100954.22;5028996;28;45479;-63
2023/08/05 08:34:09;;;;;;;;;1.50;1.50;;;;;18.76;54.41;100954.94;5023460;28;45405;-63
2023/08/05 08:36:34;;;;;;;;;3.00;1.25;;;;;18.80;54.11;100962.72;5019722;28;45313;-63
2023/08/05 08:39:00;;;;;;;;;2.00;2.00;;;;;18.84;54.13;100958.09;5019949;28;45329;-64
2023/08/05 08:41:26;;;;;;;;;2.50;1.00;;;;;18.83;53.88;100951.94;5020071;28;45348;-63
2023/08/05 08:43:54;;;;;;;;;2.00;2.00;;;;;18.87;54.12;100963.31;5020082;28;45406;-63
2023/08/05 08:46:21;;;;;;;;;2.25;2.25;;;;;18.87;53.81;100951.78;5019649;28;47341;-64
2023/08/05 08:48:48;;;;;;;;;4.00;1.00;;;;;18.88;54.07;100961.50;5019713;28;45306;-63
2023/08/05 08:51:16;;;;;;;;;2.75;1.50;;;;;18.90;53.63;100951.66;5019774;28;45259;-64
2023/08/05 08:53:43;;;;;;;;;2.00;1.25;;;;;18.91;54.14;100954.28;5019597;28;45239;-63
2023/08/05 08:56:09;;;;;;;;;3.00;2.00;;;;;18.92;53.72;100948.00;5019469;28;46016;-63
2023/08/05 08:58:34;;;;;;;;;3.00;3.00;;;;;18.90;53.51;100952.53;5023402;28;45456;-63
2023/08/05 09:01:01;;;;;;;;;3.50;2.00;;;;;18.91;53.49;100948.94;5039849;28;45357;-64
2023/08/05 09:03:30;;;;;;;;;2.00;2.00;;;;;18.90;53.25;100941.88;5039538;28;45530;-63
2023/08/05 09:05:56;;;;;;;;;2.00;2.00;;;;;18.90;53.62;100938.34;5038163;28;46680;-63
2023/08/05 09:08:21;;;;;;;;;2.00;2.00;;;;;18.91;53.25;100932.13;5021346;28;45238;-63
2023/08/05 09:10:46;;;;;;;;;2.75;2.00;;;;;18.91;53.19;100929.44;5039436;28;45449;-63
2023/08/05 09:13:16;;;;;;;;;1.00;1.00;;;;;18.89;53.36;100933.94;5039554;28;45390;-64
2023/08/05 09:15:41;;;;;;;;;2.75;2.00;;;;;18.88;53.47;100913.56;5040679;28;45496;-63
2023/08/05 09:18:08;;;;;;;;;1.75;1.75;;;;;18.90;53.17;100919.69;5024994;28;45381;-64
2023/08/05 09:20:34;;;;;;;;;2.00;2.00;;;;;18.90;53.34;100906.38;5042821;28;45368;-63
2023/08/05 09:23:02;;;;;;;;;2.25;2.00;;;;;18.92;53.46;100905.41;5042496;28;45424;-63
2023/08/05 09:25:31;;;;;;;;;4.50;2.00;;;;;18.93;53.31;100896.50;5042660;28;45242;-63
2023/08/05 09:27:59;;;;;;;;;1.50;1.00;;;;;18.96;53.54;100895.47;5042705;28;45417;-64
2023/08/05 09:30:25;;;;;;;;;3.00;3.00;;;;;18.98;53.21;100907.78;5042790;28;45443;-64
2023/08/05 09:32:53;;;;;;;;;3.50;2.00;;;;;18.99;53.45;100890.88;5042598;28;45344;-64
2023/08/05 09:35:19;;;;;;;;;3.00;2.25;;;;;19.04;53.36;100887.97;5042608;28;46287;-64
2023/08/05 09:37:49;;;;;;;;;1.00;1.00;;;;;19.04;53.24;100887.13;5042418;28;45324;-64
2023/08/05 09:40:36;;;;;;;;;4.00;1.00;;;;;19.08;53.25;100892.25;5042641;28;45420;-64
2023/08/05 09:43:03;;;;;;;;;2.50;1.75;;;;;19.14;53.24;100891.06;5042639;28;45471;-64
2023/08/05 09:45:28;;;;;;;;;4.50;3.00;;;;;19.19;53.14;100896.19;5042168;28;46164;-64
2023/08/05 09:48:03;;;;;;;;;1.25;1.25;;;;;19.24;52.90;100889.69;5042500;28;45249;-64
2023/08/05 09:50:30;;;;;;;;;3.00;3.00;;;;;19.28;52.94;100885.09;5042479;28;45236;-64
2023/08/05 09:52:59;;;;;;;;;4.00;3.00;;;;;19.31;53.08;100868.97;5042209;28;45429;-64
2023/08/05 09:55:26;;;;;;;;;2.00;2.00;;;;;19.35;53.07;100897.19;5041980;28;47056;-64
2023/08/05 09:57:53;;;;;;;;;1.00;1.00;;;;;19.39;53.08;100853.44;5042380;28;45250;-64
2023/08/05 10:00:18;;;;;;;;;1.25;1.25;;;;;19.39;52.86;100848.13;5024344;28;45404;-64
2023/08/05 10:02:45;;;;;;;;;6.25;3.75;;;;;19.39;53.08;100845.47;5040930;28;45472;-64
2023/08/05 10:05:15;;;;;;;;;4.25;2.50;;;;;19.42;52.77;100842.66;5038891;28;48519;-64
2023/08/05 10:07:42;;;;;;;;;2.25;2.25;;;;;19.43;53.39;100840.84;5030105;28;45361;-63
2023/08/05 10:10:11;;;;;;;;;2.00;2.00;;;;;19.43;53.04;100836.41;5022033;28;45235;-64
2023/08/05 10:12:52;;;;;;;;;2.00;2.00;;;;;19.45;53.27;100817.66;5030869;28;45333;-64
2023/08/05 10:15:30;;;;;;;;;2.25;2.25;;;;;19.47;52.92;100835.28;5041988;28;46399;-64
2023/08/05 10:17:56;;;;;;;;;2.50;2.50;;;;;19.46;53.44;100812.25;5041903;28;45426;-67
2023/08/05 10:20:22;;;;;;;;;3.50;3.50;;;;;19.45;53.32;100809.66;5042226;28;45297;-63
2023/08/05 10:23:04;;;;;;;;;3.00;3.00;;;;;19.39;53.35;100799.31;5041693;28;45319;-64
2023/08/05 10:25:50;;;;;;;;;3.00;2.00;;;;;19.39;53.35;100813.47;5041944;28;47265;-64
2023/08/05 10:28:23;;;;;;;;;3.00;3.00;;;;;19.40;53.57;100806.38;5040835;28;45472;-64
2023/08/05 10:30:48;;;;;;;;;4.25;4.25;;;;;19.38;53.51;100814.41;5041815;28;45305;-64
2023/08/05 10:33:15;;;;;;;;;6.50;4.00;;;;;19.36;53.33;100816.31;5041909;28;45222;-64
2023/08/05 10:35:42;;;;;;;;;4.50;3.25;;;;;19.37;53.43;100810.06;5023898;28;47121;-63
2023/08/05 10:38:16;;;;;;;;;5.00;5.00;;;;;19.36;53.79;100818.09;5041869;28;45317;-64
2023/08/05 10:41:02;;;;;;;;;3.50;3.00;;;;;19.33;53.79;100803.13;5041871;28;45315;-63
2023/08/05 10:43:33;;;;;;;;;4.75;4.75;;;;;19.31;53.71;100799.69;5041673;28;45311;-64
2023/08/05 10:45:59;;;;;;;;;8.75;4.75;;;;;19.33;53.15;100800.47;5041548;28;46146;-64
2023/08/05 10:48:33;;;;;;;;;7.75;5.75;;;;;19.33;53.78;100788.03;5041563;28;45242;-64
2023/08/05 10:51:03;;;;;;;;;5.50;5.50;;;;;19.34;54.22;100780.88;5041724;28;45281;-64
2023/08/05 10:53:31;;;;;;;;;4.25;4.00;;;;;19.36;53.94;100783.47;5041270;28;45379;-64
2023/08/05 10:55:57;;;;;;;;;3.00;2.00;;;;;19.36;54.02;100778.13;5041309;28;45656;-64
2023/08/05 10:58:30;;;;;;;;;4.00;4.00;;;;;19.37;54.11;100777.19;5041355;28;45222;-64
2023/08/05 11:01:00;;;;;;;;;3.50;3.00;;;;;19.38;54.15;100747.81;5041629;28;45265;-64
2023/08/05 11:03:42;;;;;;;;;3.25;3.25;;;;;19.45;54.08;100745.72;5041317;28;45429;-64
2023/08/05 11:06:08;;;;;;;;;4.00;2.67;;;;;19.45;54.39;100730.56;5041309;28;45170;-64
2023/08/05 11:08:35;;;;;;;;;4.50;4.00;;;;;19.51;54.15;100734.75;5040967;28;45269;-64
2023/08/05 11:11:13;;;;;;;;;3.25;3.00;;;;;19.53;54.12;100716.84;5041201;28;45316;-64
2023/08/05 11:13:40;;;;;;;;;3.50;3.50;;;;;19.58;54.31;100713.94;5040955;28;45495;-64
2023/08/05 11:16:07;;;;;;;;;4.75;3.50;;;;;19.63;54.60;100699.47;5041126;28;46620;-64
2023/08/05 11:18:33;;;;;;;;;4.25;4.25;;;;;19.69;54.23;100703.59;5041268;28;45355;-64
2023/08/05 11:21:00;;;;;;;;;6.00;6.00;;;;;19.76;54.17;100705.00;5041133;28;45328;-64